createdAt,value
2018-03-11T00:00:50.941Z,98552.27
2018-03-11T00:03:19.370Z,98552.37
2018-03-11T00:05:47.853Z,98545.86
2018-03-11T00:08:16.274Z,98545.74
2018-03-11T00:10:44.718Z,98542.34
2018-03-11T00:13:13.201Z,98545.40
2018-03-11T00:15:41.619Z,98550.05
2018-03-11T00:18:10.041Z,98552.20
2018-03-11T00:20:38.503Z,98551.25
2018-03-11T00:23:06.913Z,98552.09
2018-03-11T00:25:35.342Z,98551.63
2018-03-11T00:28:03.832Z,98553.98
2018-03-11T00:30:32.266Z,98562.08
2018-03-11T00:33:00.704Z,98559.16
2018-03-11T00:35:29.197Z,98558.44
2018-03-11T00:37:57.620Z,98557.59
2018-03-11T00:40:26.034Z,98553.31
2018-03-11T00:42:54.503Z,98549.27
2018-03-11T00:45:22.936Z,98548.22
2018-03-11T00:47:51.361Z,98538.73
2018-03-11T00:50:19.823Z,98542.09
2018-03-11T00:52:48.242Z,98535.98
2018-03-11T00:55:16.659Z,98535.63
2018-03-11T00:57:45.132Z,98533.67
2018-03-11T01:00:13.598Z,98532.86
2018-03-11T01:02:42.015Z,98533.36
2018-03-11T01:05:10.503Z,98538.30
2018-03-11T01:07:38.955Z,98539.11
2018-03-11T01:10:07.405Z,98541.59
2018-03-11T01:12:35.879Z,98539.64
2018-03-11T01:15:04.358Z,98535.54
2018-03-11T01:17:32.794Z,98535.71
2018-03-11T01:20:01.280Z,98534.89
2018-03-11T01:22:29.728Z,98540.11
2018-03-11T01:24:58.174Z,98541.67
2018-03-11T01:27:26.646Z,98533.03
2018-03-11T01:29:55.109Z,98533.88
2018-03-11T01:32:23.550Z,98529.22
2018-03-11T01:34:52.025Z,98527.19
2018-03-11T01:37:20.473Z,98527.92
2018-03-11T01:39:48.915Z,98524.40
2018-03-11T01:42:17.397Z,98525.73
2018-03-11T01:44:45.845Z,98530.97
2018-03-11T01:47:14.330Z,98533.03
2018-03-11T01:49:42.806Z,98530.53
2018-03-11T01:52:11.630Z,98534.83
2018-03-11T01:54:40.072Z,98531.02
2018-03-11T01:57:08.550Z,98529.04
2018-03-11T01:59:36.978Z,98538.36
2018-03-11T02:02:05.446Z,98524.94
2018-03-11T02:04:34.022Z,98529.69
2018-03-11T02:07:02.454Z,98528.03
2018-03-11T02:09:30.887Z,98530.82
2018-03-11T02:11:59.362Z,98530.00
2018-03-11T02:14:27.802Z,98522.05
2018-03-11T02:16:56.235Z,98521.81
2018-03-11T02:19:24.769Z,98514.16
2018-03-11T02:21:53.213Z,98515.58
2018-03-11T02:24:21.644Z,98515.73
2018-03-11T02:26:50.102Z,98499.77
2018-03-11T02:29:18.538Z,98496.77
2018-03-11T02:31:46.964Z,98498.59
2018-03-11T02:34:15.442Z,98488.95
2018-03-11T02:36:43.870Z,98493.37
2018-03-11T02:39:12.303Z,98484.03
2018-03-11T02:41:40.810Z,98482.89
2018-03-11T02:44:09.243Z,98483.28
2018-03-11T02:46:37.687Z,98486.77
2018-03-11T02:49:06.170Z,98487.00
2018-03-11T02:51:34.598Z,98482.41
2018-03-11T02:54:03.038Z,98483.95
2018-03-11T02:56:31.505Z,98479.29
2018-03-11T02:58:59.922Z,98480.40
2018-03-11T03:01:28.353Z,98479.67
2018-03-11T03:03:56.824Z,98476.35
2018-03-11T03:06:25.246Z,98477.05
2018-03-11T03:08:53.689Z,98467.89
2018-03-11T03:11:22.189Z,98468.41
2018-03-11T03:13:50.615Z,98470.48
2018-03-11T03:16:19.062Z,98470.77
2018-03-11T03:18:47.553Z,98468.01
2018-03-11T03:21:15.980Z,98462.54
2018-03-11T03:23:44.409Z,98466.55
2018-03-11T03:26:12.889Z,98460.16
2018-03-11T03:28:41.339Z,98456.47
2018-03-11T03:31:09.782Z,98457.92
2018-03-11T03:33:38.249Z,98456.98
2018-03-11T03:36:06.705Z,98457.31
2018-03-11T03:38:35.179Z,98448.38
2018-03-11T03:41:03.682Z,98445.51
2018-03-11T03:43:32.113Z,98443.15
2018-03-11T03:46:00.568Z,98432.13
2018-03-11T03:48:29.049Z,98435.94
2018-03-11T03:50:57.489Z,98434.78
2018-03-11T03:53:25.938Z,98431.72
2018-03-11T03:55:54.429Z,98432.80
2018-03-11T03:58:22.874Z,98434.48
2018-03-11T04:00:51.329Z,98426.67
2018-03-11T04:03:19.807Z,98427.95
2018-03-11T04:05:48.262Z,98422.60
2018-03-11T04:08:16.686Z,98418.88
2018-03-11T04:10:45.164Z,98410.86
2018-03-11T04:13:13.605Z,98406.64
2018-03-11T04:15:42.030Z,98407.36
2018-03-11T04:18:10.503Z,98406.58
2018-03-11T04:20:38.967Z,98403.79
2018-03-11T04:23:07.387Z,98403.18
2018-03-11T04:25:35.869Z,98400.91
2018-03-11T04:28:04.323Z,98390.89
2018-03-11T04:30:32.783Z,98394.09
2018-03-11T04:33:01.260Z,98397.72
2018-03-11T04:35:29.687Z,98390.80
2018-03-11T04:37:58.109Z,98396.50
2018-03-11T04:40:26.617Z,98388.13
2018-03-11T04:42:55.061Z,98384.78
2018-03-11T04:45:23.490Z,98395.59
2018-03-11T04:47:51.958Z,98389.81
2018-03-11T04:50:20.383Z,98393.81
2018-03-11T04:52:48.806Z,98392.27
2018-03-11T04:55:17.278Z,98390.82
2018-03-11T04:57:45.710Z,98390.13
2018-03-11T05:00:14.152Z,98385.03
2018-03-11T05:02:42.628Z,98390.26
2018-03-11T05:05:11.045Z,98390.62
2018-03-11T05:07:39.474Z,98391.34
2018-03-11T05:10:07.944Z,98388.27
2018-03-11T05:12:36.390Z,98390.73
2018-03-11T05:15:04.833Z,98393.93
2018-03-11T05:17:33.309Z,98392.02
2018-03-11T05:20:01.747Z,98394.98
2018-03-11T05:22:30.186Z,98393.56
2018-03-11T05:24:58.680Z,98394.38
2018-03-11T05:27:27.123Z,98392.42
2018-03-11T05:29:55.552Z,98390.42
2018-03-11T05:32:24.012Z,98385.69
2018-03-11T05:34:52.439Z,98384.61
2018-03-11T05:37:20.870Z,98385.45
2018-03-11T05:39:49.337Z,98383.63
2018-03-11T05:42:17.785Z,98383.02
2018-03-11T05:44:46.223Z,98378.45
2018-03-11T05:47:14.704Z,98377.11
2018-03-11T05:49:43.144Z,98368.30
2018-03-11T05:52:11.608Z,98362.03
2018-03-11T05:54:40.072Z,98362.23
2018-03-11T05:57:08.494Z,98362.32
2018-03-11T05:59:36.937Z,98366.30
2018-03-11T06:02:05.421Z,98367.87
2018-03-11T06:04:33.840Z,98364.23
2018-03-11T06:07:02.285Z,98358.44
2018-03-11T06:09:30.765Z,98358.23
2018-03-11T06:11:59.210Z,98358.30
2018-03-11T06:14:27.664Z,98356.11
2018-03-11T06:16:56.192Z,98358.09
2018-03-11T06:19:24.633Z,98358.29
2018-03-11T06:21:53.076Z,98348.13
2018-03-11T06:24:21.555Z,98341.73
2018-03-11T06:26:50.006Z,98346.45
2018-03-11T06:29:18.444Z,98346.08
2018-03-11T06:31:46.906Z,98341.66
2018-03-11T06:34:15.321Z,98333.77
2018-03-11T06:36:43.758Z,98330.80
2018-03-11T06:39:12.228Z,98327.64
2018-03-11T06:41:40.673Z,98326.50
2018-03-11T06:44:09.145Z,98329.52
2018-03-11T06:46:37.625Z,98331.29
2018-03-11T06:49:06.073Z,98321.23
2018-03-11T06:51:34.530Z,98323.52
2018-03-11T06:54:03.003Z,98312.34
2018-03-11T06:56:31.433Z,98308.66
2018-03-11T06:58:59.881Z,98308.76
2018-03-11T07:01:28.372Z,98315.66
2018-03-11T07:03:56.792Z,98314.53
2018-03-11T07:06:25.209Z,98310.11
2018-03-11T07:08:53.704Z,98313.21
2018-03-11T07:11:22.143Z,98318.68
2018-03-11T07:13:50.582Z,98323.92
2018-03-11T07:16:19.109Z,98331.53
2018-03-11T07:18:47.561Z,98334.63
2018-03-11T07:21:16.020Z,98345.06
2018-03-11T07:23:44.500Z,98346.80
2018-03-11T07:26:12.945Z,98345.58
2018-03-11T07:28:41.380Z,98335.28
2018-03-11T07:31:09.843Z,98334.07
2018-03-11T07:33:38.280Z,98324.89
2018-03-11T07:36:06.703Z,98328.48
2018-03-11T07:38:35.184Z,98330.25
2018-03-11T07:41:03.618Z,98322.94
2018-03-11T07:43:32.054Z,98316.77
2018-03-11T07:46:00.513Z,98315.94
2018-03-11T07:48:28.949Z,98309.41
2018-03-11T07:50:57.375Z,98298.05
2018-03-11T07:53:25.853Z,98299.38
2018-03-11T07:55:54.282Z,98283.86
2018-03-11T07:58:22.722Z,98271.05
2018-03-11T08:00:51.263Z,98273.20
2018-03-11T08:03:19.699Z,98276.66
2018-03-11T08:05:48.142Z,98273.91
2018-03-11T08:08:16.609Z,98267.66
2018-03-11T08:10:45.034Z,98256.74
2018-03-11T08:13:13.455Z,98253.11
2018-03-11T08:15:41.929Z,98238.43
2018-03-11T08:18:10.365Z,98233.34
2018-03-11T08:20:38.789Z,98234.01
2018-03-11T08:23:07.284Z,98246.25
2018-03-11T08:25:35.726Z,98248.48
2018-03-11T08:28:04.153Z,98237.83
2018-03-11T08:30:32.626Z,98234.69
2018-03-11T08:33:01.035Z,98246.16
2018-03-11T08:35:29.477Z,98244.12
2018-03-11T08:37:57.950Z,98231.95
2018-03-11T08:40:26.370Z,98230.36
2018-03-11T08:42:54.782Z,98229.57
2018-03-11T08:45:23.282Z,98222.59
2018-03-11T08:47:51.706Z,98218.35
2018-03-11T08:50:20.155Z,98219.27
2018-03-11T08:52:48.620Z,98219.39
2018-03-11T08:55:17.054Z,98226.64
2018-03-11T08:57:45.482Z,98215.51
2018-03-11T09:00:13.959Z,98225.83
2018-03-11T09:02:42.385Z,98222.36
2018-03-11T09:05:10.802Z,98211.05
2018-03-11T09:07:39.268Z,98213.98
2018-03-11T09:10:07.690Z,98221.84
2018-03-11T09:12:36.117Z,98233.37
2018-03-11T09:15:04.587Z,98237.75
2018-03-11T09:17:33.016Z,98252.32
2018-03-11T09:20:01.459Z,98255.25
2018-03-11T09:22:29.953Z,98256.08
2018-03-11T09:24:58.359Z,98266.02
2018-03-11T09:27:26.798Z,98251.91
2018-03-11T09:29:55.283Z,98248.73
2018-03-11T09:32:23.718Z,98246.28
2018-03-11T09:34:52.169Z,98238.20
2018-03-11T09:37:20.661Z,98230.18
2018-03-11T09:39:49.109Z,98230.36
2018-03-11T09:42:17.538Z,98225.20
2018-03-11T09:44:46.020Z,98231.88
2018-03-11T09:47:14.456Z,98229.31
2018-03-11T09:49:42.890Z,98238.97
2018-03-11T09:52:11.372Z,98226.00
2018-03-11T09:54:39.820Z,98231.60
2018-03-11T09:57:08.235Z,98230.73
2018-03-11T09:59:36.687Z,98227.80
2018-03-11T10:02:05.181Z,98214.16
2018-03-11T10:04:33.617Z,98209.30
2018-03-11T10:07:02.115Z,98205.84
2018-03-11T10:09:30.549Z,98213.05
2018-03-11T10:11:59.021Z,98214.55
2018-03-11T10:14:27.495Z,98219.77
2018-03-11T10:16:55.953Z,98223.39
2018-03-11T10:19:24.402Z,98227.72
2018-03-11T10:21:52.939Z,98227.48
2018-03-11T10:24:21.421Z,98230.67
2018-03-11T10:26:49.862Z,98242.19
2018-03-11T10:29:18.367Z,98239.99
2018-03-11T10:31:46.793Z,98232.66
2018-03-11T10:34:15.207Z,98209.41
2018-03-11T10:36:43.667Z,98200.92
2018-03-11T10:39:12.107Z,98186.05
2018-03-11T10:41:40.521Z,98181.20
2018-03-11T10:44:08.980Z,98178.64
2018-03-11T10:46:37.416Z,98179.46
2018-03-11T10:49:05.851Z,98169.21
2018-03-11T10:51:34.302Z,98180.52
2018-03-11T10:54:02.730Z,98176.95
2018-03-11T10:56:31.171Z,98169.68
2018-03-11T10:58:59.644Z,98173.95
2018-03-11T11:04:34.162Z,98173.91
2018-03-11T11:07:02.597Z,98169.86
2018-03-11T11:09:31.014Z,98184.58
2018-03-11T11:11:59.513Z,98178.65
2018-03-11T11:14:27.939Z,98182.69
2018-03-11T11:16:56.369Z,98181.82
2018-03-11T11:19:24.837Z,98188.53
2018-03-11T11:21:53.336Z,98188.61
2018-03-11T11:24:21.774Z,98183.45
2018-03-11T11:26:50.249Z,98187.20
2018-03-11T11:29:18.686Z,98185.44
2018-03-11T11:31:47.143Z,98179.01
2018-03-11T11:34:15.609Z,98168.45
2018-03-11T11:36:44.027Z,98156.05
2018-03-11T11:39:12.438Z,98160.59
2018-03-11T11:41:40.912Z,98160.72
2018-03-11T11:44:09.351Z,98156.31
2018-03-11T11:46:37.778Z,98155.89
2018-03-11T11:49:06.242Z,98147.94
2018-03-11T11:51:34.736Z,98141.47
2018-03-11T11:54:03.141Z,98145.01
2018-03-11T11:56:31.634Z,98146.73
2018-03-11T11:59:00.054Z,98142.05
2018-03-11T12:01:28.470Z,98136.70
2018-03-11T12:03:56.973Z,98126.11
2018-03-11T12:06:25.418Z,98121.84
2018-03-11T12:08:53.834Z,98110.30
2018-03-11T12:11:22.493Z,98117.50
2018-03-11T12:13:50.915Z,98104.94
2018-03-11T12:16:19.440Z,98098.44
2018-03-11T12:18:47.894Z,98099.25
2018-03-11T12:21:16.328Z,98096.68
2018-03-11T12:23:44.771Z,98099.55
2018-03-11T12:26:13.223Z,98096.02
2018-03-11T12:28:41.638Z,98098.48
2018-03-11T12:31:10.096Z,98098.09
2018-03-11T12:33:38.560Z,98085.09
2018-03-11T12:36:07.018Z,98088.91
2018-03-11T12:38:35.465Z,98073.87
2018-03-11T12:41:03.990Z,98073.46
2018-03-11T12:43:32.420Z,98073.69
2018-03-11T12:46:00.868Z,98072.80
2018-03-11T12:48:29.344Z,98074.11
2018-03-11T12:50:57.774Z,98071.45
2018-03-11T12:53:26.198Z,98071.10
2018-03-11T12:55:54.701Z,98072.98
2018-03-11T12:58:23.145Z,98071.04
2018-03-11T13:00:51.577Z,98064.87
2018-03-11T13:03:20.073Z,98063.40
2018-03-11T13:05:48.510Z,98060.11
2018-03-11T13:08:16.938Z,98064.27
2018-03-11T13:10:45.426Z,98054.67
2018-03-11T13:13:13.898Z,98050.59
2018-03-11T13:15:42.362Z,98049.28
2018-03-11T13:18:10.853Z,98045.38
2018-03-11T13:20:50.952Z,98036.83
2018-03-11T13:23:19.438Z,98031.92
2018-03-11T13:25:47.867Z,98028.62
2018-03-11T13:28:28.231Z,98037.45
2018-03-11T13:30:56.661Z,98037.88
2018-03-11T13:33:37.026Z,98036.23
2018-03-11T13:36:05.498Z,98028.16
2018-03-11T13:38:45.737Z,98026.39
2018-03-11T13:41:14.196Z,98022.81
2018-03-11T13:43:42.646Z,98025.15
2018-03-11T13:46:22.851Z,98022.59
2018-03-11T13:48:51.300Z,98021.08
2018-03-11T13:51:31.510Z,98011.09
2018-03-11T13:53:59.978Z,98002.97
2018-03-11T13:56:28.412Z,97998.05
2018-03-11T13:58:56.901Z,97993.55
2018-03-11T14:01:25.341Z,97995.05
2018-03-11T14:03:53.793Z,97995.30
2018-03-11T14:06:22.277Z,97982.43
2018-03-11T14:08:50.738Z,97977.36
2018-03-11T14:11:19.174Z,97986.63
2018-03-11T14:13:47.661Z,97983.53
2018-03-11T14:16:16.431Z,97988.86
2018-03-11T14:18:44.857Z,97984.39
2018-03-11T14:21:13.349Z,97981.67
2018-03-11T14:23:41.814Z,97978.49
2018-03-11T14:26:10.262Z,97975.94
2018-03-11T14:28:38.744Z,97972.36
2018-03-11T14:31:07.158Z,97973.56
2018-03-11T14:33:35.586Z,97970.12
2018-03-11T14:36:04.095Z,97969.82
2018-03-11T14:38:32.544Z,97955.71
2018-03-11T14:41:01.040Z,97959.16
2018-03-11T14:43:29.510Z,97951.70
2018-03-11T14:45:57.938Z,97949.81
2018-03-11T14:48:26.373Z,97951.66
2018-03-11T14:50:54.890Z,97949.09
2018-03-11T14:53:23.342Z,97942.66
2018-03-11T14:55:51.784Z,97936.16
2018-03-11T14:58:20.271Z,97927.23
2018-03-11T15:00:48.717Z,97923.00
2018-03-11T15:03:17.154Z,97913.31
2018-03-11T15:05:45.645Z,97910.58
2018-03-11T15:08:14.113Z,97909.19
2018-03-11T15:10:42.564Z,97897.85
2018-03-11T15:13:11.045Z,97897.61
2018-03-11T15:15:39.504Z,97898.72
2018-03-11T15:18:07.923Z,97891.98
2018-03-11T15:20:36.386Z,97891.69
2018-03-11T15:23:04.833Z,97880.97
2018-03-11T15:25:33.285Z,97883.96
2018-03-11T15:28:01.781Z,97879.37
2018-03-11T15:30:30.210Z,97882.95
2018-03-11T15:32:58.661Z,97880.85
2018-03-11T15:35:27.157Z,97883.34
2018-03-11T15:37:55.616Z,97882.36
2018-03-11T15:40:24.043Z,97884.66
2018-03-11T15:42:52.538Z,97883.02
2018-03-11T15:45:20.974Z,97878.72
2018-03-11T15:47:49.408Z,97881.77
2018-03-11T15:50:17.889Z,97881.22
2018-03-11T15:52:46.326Z,97877.47
2018-03-11T15:55:14.751Z,97872.93
2018-03-11T15:57:43.210Z,97878.02
2018-03-11T16:00:11.641Z,97880.05
2018-03-11T16:02:40.071Z,97880.50
2018-03-11T16:05:08.546Z,97886.69
2018-03-11T16:07:36.972Z,97877.92
2018-03-11T16:10:05.388Z,97882.39
2018-03-11T16:12:33.852Z,97879.27
2018-03-11T16:15:02.277Z,97881.25
2018-03-11T16:17:30.726Z,97880.31
2018-03-11T16:19:59.224Z,97879.75
2018-03-11T16:22:27.659Z,97887.84
2018-03-11T16:24:56.077Z,97887.77
2018-03-11T16:27:24.543Z,97884.64
2018-03-11T16:29:52.976Z,97893.27
2018-03-11T16:32:21.400Z,97885.58
2018-03-11T16:34:49.913Z,97889.02
2018-03-11T16:37:18.362Z,97887.86
2018-03-11T16:39:46.771Z,97887.08
2018-03-11T16:42:15.265Z,97885.97
2018-03-11T16:44:43.703Z,97883.28
2018-03-11T16:47:12.115Z,97883.18
2018-03-11T16:49:40.587Z,97881.08
2018-03-11T16:52:09.011Z,97881.33
2018-03-11T16:54:37.438Z,97883.56
2018-03-11T16:57:05.930Z,97878.12
2018-03-11T16:59:34.334Z,97878.12
2018-03-11T17:02:02.759Z,97879.12
2018-03-11T17:04:31.256Z,97879.55
2018-03-11T17:06:59.681Z,97879.09
2018-03-11T17:09:28.124Z,97881.13
2018-03-11T17:11:56.604Z,97879.33
2018-03-11T17:14:25.053Z,97888.45
2018-03-11T17:16:53.502Z,97892.42
2018-03-11T17:19:22.025Z,97885.75
2018-03-11T17:21:50.458Z,97880.38
2018-03-11T17:24:18.897Z,97880.27
2018-03-11T17:26:47.383Z,97887.39
2018-03-11T17:29:15.798Z,97884.75
2018-03-11T17:31:44.253Z,97889.02
2018-03-11T17:34:12.737Z,97886.20
2018-03-11T17:36:41.181Z,97889.27
2018-03-11T17:39:09.709Z,97897.38
2018-03-11T17:41:38.175Z,97890.14
2018-03-11T17:44:06.633Z,97901.13
2018-03-11T17:46:35.097Z,97892.59
2018-03-11T17:49:03.596Z,97897.74
2018-03-11T17:51:32.046Z,97897.50
2018-03-11T17:54:00.505Z,97899.09
2018-03-11T17:56:28.997Z,97897.32
2018-03-11T17:58:57.431Z,97894.52
2018-03-11T18:01:25.943Z,97895.53
2018-03-11T18:03:54.381Z,97892.70
2018-03-11T18:06:22.844Z,97895.81
2018-03-11T18:08:51.343Z,97891.19
2018-03-11T18:11:19.818Z,97885.05
2018-03-11T18:13:48.270Z,97896.20
2018-03-11T18:16:16.733Z,97885.44
2018-03-11T18:18:45.253Z,97893.22
2018-03-11T18:21:13.704Z,97897.59
2018-03-11T18:23:42.167Z,97894.52
2018-03-11T18:26:10.676Z,97897.94
2018-03-11T18:28:39.101Z,97893.41
2018-03-11T18:31:07.531Z,97899.36
2018-03-11T18:33:36.010Z,97896.47
2018-03-11T18:36:04.472Z,97902.42
2018-03-11T18:38:32.904Z,97900.51
2018-03-11T18:41:01.375Z,97895.06
2018-03-11T18:43:29.822Z,97899.27
2018-03-11T18:45:58.263Z,97895.00
2018-03-11T18:48:26.737Z,97902.83
2018-03-11T18:50:55.193Z,97902.36
2018-03-11T18:53:23.654Z,97901.12
2018-03-11T18:55:52.138Z,97901.92
2018-03-11T18:58:20.566Z,97894.84
2018-03-11T19:00:49.018Z,97904.92
2018-03-11T19:03:17.501Z,97897.40
2018-03-11T19:05:45.972Z,97892.66
2018-03-11T19:08:14.446Z,97889.41
2018-03-11T19:10:42.965Z,97890.95
2018-03-11T19:13:11.398Z,97886.02
2018-03-11T19:15:39.840Z,97890.14
2018-03-11T19:18:08.327Z,97890.28
2018-03-11T19:20:36.769Z,97890.11
2018-03-11T19:23:05.223Z,97883.53
2018-03-11T19:25:33.709Z,97887.63
2018-03-11T19:28:02.186Z,97888.66
2018-03-11T19:30:30.658Z,97888.50
2018-03-11T19:32:59.163Z,97892.76
2018-03-11T19:35:27.596Z,97892.96
2018-03-11T19:37:56.046Z,97898.73
2018-03-11T19:40:24.541Z,97897.14
2018-03-11T19:42:52.968Z,97900.13
2018-03-11T19:45:21.418Z,97901.51
2018-03-11T19:47:49.902Z,97889.66
2018-03-11T19:50:18.327Z,97892.80
2018-03-11T19:52:46.773Z,97889.16
2018-03-11T19:55:15.261Z,97894.38
2018-03-11T19:57:43.709Z,97892.64
2018-03-11T20:00:12.177Z,97888.64
2018-03-11T20:02:40.720Z,97895.52
2018-03-11T20:05:09.174Z,97897.31
2018-03-11T20:07:37.614Z,97896.23
2018-03-11T20:10:06.100Z,97892.23
2018-03-11T20:12:34.532Z,97894.34
2018-03-11T20:15:02.975Z,97900.04
2018-03-11T20:17:31.439Z,97898.22
2018-03-11T20:19:59.877Z,97903.03
2018-03-11T20:22:28.301Z,97899.34
2018-03-11T20:24:56.778Z,97899.64
2018-03-11T20:27:25.234Z,97895.31
2018-03-11T20:29:53.654Z,97902.17
2018-03-11T20:32:22.264Z,97909.66
2018-03-11T20:34:50.857Z,97909.91
2018-03-11T20:37:19.281Z,97903.04
2018-03-11T20:39:47.749Z,97902.56
2018-03-11T20:42:16.250Z,97898.09
2018-03-11T20:44:44.683Z,97899.90
2018-03-11T20:47:13.153Z,97898.48
2018-03-11T20:52:16.357Z,97889.65
2018-03-11T20:54:44.810Z,97889.78
2018-03-11T20:57:13.268Z,97891.22
2018-03-11T20:59:41.726Z,97883.63
2018-03-11T21:02:10.149Z,97883.58
2018-03-11T21:04:38.578Z,97888.98
2018-03-11T21:07:07.071Z,97880.44
2018-03-11T21:09:35.514Z,97875.59
2018-03-11T21:12:03.974Z,97870.80
2018-03-11T21:14:32.482Z,97873.06
2018-03-11T21:17:00.920Z,97869.69
2018-03-11T21:19:29.358Z,97870.70
2018-03-11T21:21:57.837Z,97865.50
2018-03-11T21:24:26.263Z,97867.95
2018-03-11T21:26:54.699Z,97861.55
2018-03-11T21:29:23.190Z,97862.77
2018-03-11T21:31:51.641Z,97860.71
2018-03-11T21:34:20.129Z,97864.16
2018-03-11T21:36:48.606Z,97858.51
2018-03-11T21:39:17.042Z,97858.78
2018-03-11T21:41:45.497Z,97854.48
2018-03-11T21:44:14.002Z,97846.36
2018-03-11T21:46:42.433Z,97843.11
2018-03-11T21:49:10.860Z,97848.62
2018-03-11T21:51:39.381Z,97850.45
2018-03-11T21:54:07.808Z,97848.77
2018-03-11T21:56:36.274Z,97846.04
2018-03-11T21:59:04.723Z,97842.63
2018-03-11T22:01:33.149Z,97834.44
2018-03-11T22:04:01.582Z,97835.77
2018-03-11T22:06:30.081Z,97839.31
2018-03-11T22:08:58.541Z,97838.30
2018-03-11T22:11:26.966Z,97828.78
2018-03-11T22:13:55.463Z,97830.41
2018-03-11T22:16:23.909Z,97825.66
2018-03-11T22:18:52.345Z,97822.60
2018-03-11T22:21:20.849Z,97825.58
2018-03-11T22:23:49.304Z,97826.95
2018-03-11T22:26:17.746Z,97825.39
2018-03-11T22:28:46.233Z,97827.00
2018-03-11T22:31:14.669Z,97832.45
2018-03-11T22:33:43.107Z,97830.55
2018-03-11T22:36:11.595Z,97835.77
2018-03-11T22:38:40.024Z,97826.95
2018-03-11T22:41:08.470Z,97825.12
2018-03-11T22:43:36.937Z,97822.63
2018-03-11T22:46:05.384Z,97821.64
2018-03-11T22:48:33.819Z,97823.34
2018-03-11T22:51:02.293Z,97825.03
2018-03-11T22:53:30.738Z,97823.42
2018-03-11T22:55:59.193Z,97819.50
2018-03-11T22:58:27.664Z,97819.68
2018-03-11T23:00:56.113Z,97827.05
2018-03-11T23:03:24.564Z,97828.06
2018-03-11T23:05:53.042Z,97825.44
2018-03-11T23:08:21.501Z,97821.16
2018-03-11T23:10:49.935Z,97819.14
2018-03-11T23:13:18.432Z,97817.84
2018-03-11T23:15:46.871Z,97809.61
2018-03-11T23:18:15.321Z,97808.08
2018-03-11T23:20:43.812Z,97812.68
2018-03-11T23:23:12.273Z,97816.56
2018-03-11T23:25:40.723Z,97820.48
2018-03-11T23:28:09.208Z,97822.75
2018-03-11T23:30:37.642Z,97813.88
2018-03-11T23:33:06.089Z,97814.02
2018-03-11T23:35:34.565Z,97820.20
2018-03-11T23:38:02.994Z,97817.72
2018-03-11T23:40:31.418Z,97813.56
2018-03-11T23:42:59.888Z,97811.34
2018-03-11T23:45:28.328Z,97808.63
2018-03-11T23:47:56.762Z,97808.31
2018-03-11T23:50:25.219Z,97812.81
2018-03-11T23:52:53.654Z,97800.78
2018-03-11T23:55:22.093Z,97807.19
2018-03-11T23:57:50.551Z,97812.68
